createdAt,value
2023-09-27T00:00:37.968Z,89.04
2023-09-27T00:01:40.057Z,89.68
2023-09-27T00:02:42.702Z,89.08
2023-09-27T00:03:44.802Z,89.56
2023-09-27T00:04:46.843Z,89.15
2023-09-27T00:05:48.985Z,89.13
2023-09-27T00:06:51.477Z,88.40
2023-09-27T00:07:53.574Z,88.77
2023-09-27T00:08:55.720Z,88.83
2023-09-27T00:09:58.352Z,89.14
2023-09-27T00:11:00.385Z,88.81
2023-09-27T00:12:07.123Z,89.61
2023-09-27T00:13:10.647Z,89.29
2023-09-27T00:14:13.384Z,89.76
2023-09-27T00:15:15.522Z,89.40
2023-09-27T00:16:17.577Z,89.57
2023-09-27T00:17:19.655Z,89.48
2023-09-27T00:18:21.719Z,89.65
2023-09-27T00:19:23.784Z,88.91
2023-09-27T00:20:26.105Z,88.81
2023-09-27T00:21:28.548Z,89.39
2023-09-27T00:22:30.539Z,89.83
2023-09-27T00:23:32.579Z,89.71
2023-09-27T00:24:35.314Z,89.20
2023-09-27T00:25:37.312Z,89.00
2023-09-27T00:26:39.308Z,89.61
2023-09-27T00:27:41.668Z,89.96
2023-09-27T00:28:43.662Z,89.09
2023-09-27T00:29:46.948Z,89.88
2023-09-27T00:30:51.845Z,89.07
2023-09-27T00:31:53.961Z,89.50
2023-09-27T00:32:56.163Z,89.16
2023-09-27T00:33:58.192Z,89.96
2023-09-27T00:35:00.677Z,90.12
2023-09-27T00:36:03.327Z,89.38
2023-09-27T00:37:05.580Z,89.65
2023-09-27T00:38:07.793Z,89.68
2023-09-27T00:39:09.878Z,89.21
2023-09-27T00:40:14.231Z,89.74
2023-09-27T00:41:16.284Z,89.75
2023-09-27T00:42:18.347Z,89.68
2023-09-27T00:43:34.693Z,89.10
2023-09-27T00:44:36.764Z,89.24
2023-09-27T00:45:38.744Z,88.77
2023-09-27T00:46:40.859Z,89.29
2023-09-27T00:47:42.846Z,89.21
2023-09-27T00:48:44.832Z,89.17
2023-09-27T00:49:46.845Z,88.80
2023-09-27T00:50:48.885Z,88.62
2023-09-27T00:51:50.927Z,88.36
2023-09-27T00:52:52.983Z,89.30
2023-09-27T00:53:55.764Z,88.56
2023-09-27T00:54:57.969Z,88.58
2023-09-27T00:56:00.046Z,88.96
2023-09-27T00:57:02.914Z,89.11
2023-09-27T00:58:04.936Z,89.07
2023-09-27T00:59:07.077Z,88.90
2023-09-27T01:00:12.073Z,88.29
2023-09-27T01:01:14.462Z,88.91
2023-09-27T01:02:19.549Z,88.71
2023-09-27T01:03:21.612Z,88.42
2023-09-27T01:04:24.169Z,88.92
2023-09-27T01:05:26.295Z,89.11
2023-09-27T01:06:28.374Z,88.54
2023-09-27T01:07:30.399Z,89.22
2023-09-27T01:08:32.459Z,88.88
2023-09-27T01:09:34.481Z,89.16
2023-09-27T01:10:36.779Z,88.99
2023-09-27T01:11:39.172Z,89.67
2023-09-27T01:12:41.264Z,89.20
2023-09-27T01:13:43.298Z,88.31
2023-09-27T01:14:46.093Z,88.55
2023-09-27T01:15:48.304Z,88.81
2023-09-27T01:16:50.300Z,88.91
2023-09-27T01:17:58.914Z,89.41
2023-09-27T01:19:04.179Z,89.81
2023-09-27T01:20:07.877Z,88.79
2023-09-27T01:21:10.066Z,89.83
2023-09-27T01:22:12.118Z,88.97
2023-09-27T01:23:14.142Z,88.68
2023-09-27T01:24:16.615Z,89.51
2023-09-27T01:25:18.632Z,89.16
2023-09-27T01:26:20.760Z,89.33
2023-09-27T01:27:23.312Z,88.88
2023-09-27T01:28:25.345Z,89.06
2023-09-27T01:29:27.421Z,88.88
2023-09-27T01:30:35.258Z,88.81
2023-09-27T01:31:37.887Z,89.76
2023-09-27T01:32:40.126Z,88.95
2023-09-27T01:33:42.224Z,89.58
2023-09-27T01:34:44.247Z,89.11
2023-09-27T01:35:46.519Z,88.86
2023-09-27T01:36:48.500Z,89.34
2023-09-27T01:37:50.509Z,89.11
2023-09-27T01:38:53.413Z,88.81
2023-09-27T01:39:56.274Z,88.96
2023-09-27T01:40:58.879Z,90.11
2023-09-27T01:42:00.918Z,89.63
2023-09-27T01:43:03.791Z,89.69
2023-09-27T01:44:06.080Z,89.64
2023-09-27T01:45:08.798Z,89.19
2023-09-27T01:46:10.807Z,89.54
2023-09-27T01:47:12.897Z,89.14
2023-09-27T01:48:14.990Z,89.42
2023-09-27T01:49:17.097Z,89.86
2023-09-27T01:50:24.894Z,89.25
2023-09-27T01:51:26.937Z,90.45
2023-09-27T01:52:28.989Z,89.14
2023-09-27T01:53:31.032Z,89.11
2023-09-27T01:54:33.071Z,89.61
2023-09-27T01:55:38.126Z,89.77
2023-09-27T01:56:40.160Z,89.73
2023-09-27T01:57:42.570Z,89.22
2023-09-27T01:58:44.589Z,90.04
2023-09-27T01:59:46.564Z,90.02
2023-09-27T02:00:48.783Z,89.11
2023-09-27T02:01:50.924Z,89.12
2023-09-27T02:02:57.043Z,90.01
2023-09-27T02:03:59.289Z,90.01
2023-09-27T02:05:01.370Z,89.82
2023-09-27T02:06:03.432Z,89.44
2023-09-27T02:07:05.437Z,90.28
2023-09-27T02:08:08.355Z,90.23
2023-09-27T02:09:10.588Z,90.19
2023-09-27T02:10:12.966Z,89.43
2023-09-27T02:11:16.092Z,89.92
2023-09-27T02:12:18.162Z,90.04
2023-09-27T02:13:20.167Z,89.50
2023-09-27T02:14:22.202Z,89.68
2023-09-27T02:15:24.230Z,89.97
2023-09-27T02:16:26.320Z,90.05
2023-09-27T02:17:28.473Z,89.64
2023-09-27T02:18:30.501Z,89.34
2023-09-27T02:19:32.534Z,90.23
2023-09-27T02:20:34.593Z,89.94
2023-09-27T02:21:36.623Z,89.78
2023-09-27T02:22:38.997Z,89.68
2023-09-27T02:23:41.033Z,90.02
2023-09-27T02:24:43.059Z,89.86
2023-09-27T02:25:45.115Z,89.20
2023-09-27T02:26:47.107Z,89.09
2023-09-27T02:27:49.148Z,89.22
2023-09-27T02:28:51.347Z,89.16
2023-09-27T02:29:53.595Z,89.06
2023-09-27T02:30:55.567Z,89.10
2023-09-27T02:31:57.638Z,89.04
2023-09-27T02:32:59.736Z,88.69
2023-09-27T02:34:01.965Z,89.42
2023-09-27T02:35:03.989Z,89.61
2023-09-27T02:36:06.132Z,88.60
2023-09-27T02:37:08.232Z,88.90
2023-09-27T02:38:10.513Z,88.78
2023-09-27T02:39:12.520Z,89.00
2023-09-27T02:40:15.199Z,89.26
2023-09-27T02:41:17.284Z,89.63
2023-09-27T02:42:19.299Z,89.05
2023-09-27T02:43:21.336Z,89.25
2023-09-27T02:44:23.411Z,89.18
2023-09-27T02:45:25.460Z,89.74
2023-09-27T02:46:27.946Z,88.77
2023-09-27T02:47:30.051Z,89.45
2023-09-27T02:48:32.217Z,89.44
2023-09-27T02:49:37.220Z,89.02
2023-09-27T02:50:39.215Z,89.42
2023-09-27T02:51:41.560Z,89.19
2023-09-27T02:52:45.168Z,89.64
2023-09-27T02:53:47.553Z,89.18
2023-09-27T02:54:49.569Z,89.06
2023-09-27T02:55:51.592Z,89.01
2023-09-27T02:56:53.814Z,88.64
2023-09-27T02:57:56.473Z,88.68
2023-09-27T02:58:58.661Z,88.58
2023-09-27T03:00:00.688Z,88.69
2023-09-27T03:01:02.689Z,88.75
2023-09-27T03:02:05.707Z,88.62
2023-09-27T03:03:09.719Z,88.76
2023-09-27T03:04:12.455Z,88.78
2023-09-27T03:05:14.564Z,89.01
2023-09-27T03:06:16.606Z,88.66
2023-09-27T03:07:18.776Z,89.40
2023-09-27T03:08:20.790Z,89.60
2023-09-27T03:09:22.826Z,88.85
2023-09-27T03:10:24.928Z,89.03
2023-09-27T03:11:27.149Z,88.78
2023-09-27T03:12:29.469Z,89.45
2023-09-27T03:13:31.478Z,89.18
2023-09-27T03:14:33.667Z,88.53
2023-09-27T03:15:35.777Z,89.35
2023-09-27T03:16:38.783Z,89.64
2023-09-27T03:17:44.108Z,89.18
2023-09-27T03:18:46.486Z,89.68
2023-09-27T03:19:49.142Z,89.56
2023-09-27T03:20:52.808Z,88.77
2023-09-27T03:21:54.854Z,88.87
2023-09-27T03:22:56.870Z,89.33
2023-09-27T03:23:58.851Z,89.03
2023-09-27T03:25:01.573Z,89.40
2023-09-27T03:26:04.730Z,89.59
2023-09-27T03:27:09.807Z,89.23
2023-09-27T03:28:11.940Z,88.75
2023-09-27T03:29:13.946Z,88.80
2023-09-27T03:30:16.148Z,89.86
2023-09-27T03:31:18.971Z,89.55
2023-09-27T03:32:21.290Z,89.42
2023-09-27T03:33:23.409Z,89.58
2023-09-27T03:34:25.397Z,89.90
2023-09-27T03:35:28.049Z,89.56
2023-09-27T03:36:30.144Z,89.08
2023-09-27T03:37:32.221Z,89.61
2023-09-27T03:38:34.292Z,88.96
2023-09-27T03:39:37.205Z,88.94
2023-09-27T03:40:41.361Z,88.77
2023-09-27T03:41:43.419Z,88.91
2023-09-27T03:42:45.967Z,89.55
2023-09-27T03:43:48.969Z,89.49
2023-09-27T03:44:51.439Z,88.74
2023-09-27T03:45:53.771Z,89.54
2023-09-27T03:46:55.886Z,88.93
2023-09-27T03:47:58.056Z,88.64
2023-09-27T03:49:00.072Z,89.28
2023-09-27T03:50:02.119Z,89.67
2023-09-27T03:51:04.106Z,89.29
2023-09-27T03:52:06.089Z,88.92
2023-09-27T03:53:08.144Z,89.72
2023-09-27T03:54:10.225Z,89.33
2023-09-27T03:55:12.623Z,89.56
2023-09-27T03:56:14.697Z,89.26
2023-09-27T03:57:16.672Z,89.00
2023-09-27T03:58:18.920Z,89.50
2023-09-27T03:59:20.954Z,89.56
2023-09-27T04:00:23.057Z,89.75
2023-09-27T04:01:25.051Z,89.77
2023-09-27T04:02:27.375Z,89.11
2023-09-27T04:03:29.478Z,89.13
2023-09-27T04:04:31.621Z,88.98
2023-09-27T04:05:33.701Z,89.59
2023-09-27T04:06:35.745Z,89.48
2023-09-27T04:07:37.741Z,89.54
2023-09-27T04:08:39.823Z,89.78
2023-09-27T04:09:41.882Z,89.16
2023-09-27T04:10:43.856Z,88.95
2023-09-27T04:11:45.861Z,89.22
2023-09-27T04:12:48.716Z,88.98
2023-09-27T04:13:50.924Z,89.48
2023-09-27T04:14:53.152Z,89.38
2023-09-27T04:15:55.154Z,89.18
2023-09-27T04:17:01.919Z,88.79
2023-09-27T04:18:05.034Z,88.57
2023-09-27T04:19:07.073Z,89.18
2023-09-27T04:20:15.714Z,88.90
2023-09-27T04:21:17.980Z,89.07
2023-09-27T04:22:20.085Z,88.53
2023-09-27T04:23:22.144Z,88.63
2023-09-27T04:24:24.543Z,88.52
2023-09-27T04:25:26.559Z,89.14
2023-09-27T04:26:28.629Z,89.17
2023-09-27T04:27:30.631Z,89.02
2023-09-27T04:28:35.806Z,88.71
2023-09-27T04:29:37.853Z,89.17
2023-09-27T04:30:39.947Z,89.35
2023-09-27T04:31:42.021Z,89.31
2023-09-27T04:32:44.782Z,89.06
2023-09-27T04:33:48.533Z,89.11
2023-09-27T04:34:51.143Z,89.31
2023-09-27T04:35:53.117Z,89.43
2023-09-27T04:36:55.222Z,89.62
2023-09-27T04:37:57.387Z,89.30
2023-09-27T04:38:59.443Z,89.56
2023-09-27T04:40:01.471Z,89.78
2023-09-27T04:41:03.732Z,89.13
2023-09-27T04:42:05.775Z,89.81
2023-09-27T04:43:07.777Z,89.50
2023-09-27T04:44:09.895Z,89.81
2023-09-27T04:45:15.090Z,90.15
2023-09-27T04:46:18.354Z,90.08
2023-09-27T04:47:20.416Z,89.44
2023-09-27T04:48:22.573Z,90.00
2023-09-27T04:49:24.581Z,89.94
2023-09-27T04:50:27.191Z,89.23
2023-09-27T04:51:29.281Z,89.41
2023-09-27T04:52:31.291Z,89.26
2023-09-27T04:53:36.317Z,89.61
2023-09-27T04:54:38.353Z,89.99
2023-09-27T04:55:40.359Z,90.04
2023-09-27T04:56:42.402Z,89.93
2023-09-27T04:57:44.410Z,90.02
2023-09-27T04:58:46.445Z,89.90
2023-09-27T04:59:48.487Z,90.12
2023-09-27T05:00:50.694Z,89.52
2023-09-27T05:01:53.179Z,89.95
2023-09-27T05:02:55.173Z,89.59
2023-09-27T05:03:57.229Z,89.91
2023-09-27T05:04:59.307Z,90.06
2023-09-27T05:06:01.320Z,89.77
2023-09-27T05:07:04.937Z,89.47
2023-09-27T05:08:07.066Z,90.06
2023-09-27T05:09:09.577Z,89.46
2023-09-27T05:10:12.235Z,89.92
2023-09-27T05:11:15.859Z,89.87
2023-09-27T05:12:18.155Z,89.57
2023-09-27T05:13:22.919Z,89.75
2023-09-27T05:14:24.949Z,90.04
2023-09-27T05:15:27.453Z,89.73
2023-09-27T05:16:31.693Z,89.51
2023-09-27T05:17:33.874Z,89.63
2023-09-27T05:18:35.904Z,89.96
2023-09-27T05:19:37.975Z,89.50
2023-09-27T05:20:40.184Z,89.62
2023-09-27T05:21:43.475Z,90.07
2023-09-27T05:22:45.555Z,90.06
2023-09-27T05:23:47.534Z,89.89
2023-09-27T05:24:49.538Z,89.60
2023-09-27T05:25:51.618Z,89.74
2023-09-27T05:26:53.633Z,89.68
2023-09-27T05:27:56.281Z,90.08
2023-09-27T05:28:58.345Z,90.17
2023-09-27T05:30:00.507Z,90.22
2023-09-27T05:31:02.606Z,90.11
2023-09-27T05:32:04.799Z,89.62
2023-09-27T05:33:07.095Z,89.55
2023-09-27T05:34:09.164Z,90.10
2023-09-27T05:35:11.353Z,90.21
2023-09-27T05:36:13.877Z,90.21
2023-09-27T05:37:15.953Z,90.21
2023-09-27T05:38:18.666Z,89.71
2023-09-27T05:39:20.836Z,89.69
2023-09-27T05:40:23.418Z,90.03
2023-09-27T05:41:26.344Z,89.86
2023-09-27T05:42:28.829Z,89.96
2023-09-27T05:43:31.084Z,90.24
2023-09-27T05:44:33.215Z,90.63
2023-09-27T05:45:36.109Z,90.49
2023-09-27T05:46:38.899Z,90.41
2023-09-27T05:47:41.144Z,89.68
2023-09-27T05:48:43.265Z,89.74
2023-09-27T05:49:45.535Z,90.19
2023-09-27T05:50:48.238Z,90.24
2023-09-27T05:51:50.312Z,90.33
2023-09-27T05:52:52.330Z,89.89
2023-09-27T05:53:54.342Z,89.87
2023-09-27T05:54:58.365Z,90.58
2023-09-27T05:56:04.373Z,89.86
2023-09-27T05:57:07.505Z,90.61
2023-09-27T05:58:09.519Z,90.32
2023-09-27T05:59:12.947Z,89.81
2023-09-27T06:00:28.494Z,90.58
2023-09-27T06:01:33.224Z,89.53
2023-09-27T06:02:35.348Z,89.72
2023-09-27T06:03:38.377Z,88.53
2023-09-27T06:04:40.593Z,88.09
2023-09-27T06:05:42.916Z,87.63
2023-09-27T06:06:46.558Z,87.02
2023-09-27T06:07:48.676Z,86.75
2023-09-27T06:08:50.861Z,86.08
2023-09-27T06:09:52.959Z,86.73
2023-09-27T06:10:54.933Z,85.67
2023-09-27T06:11:56.968Z,84.67
2023-09-27T06:12:59.208Z,85.00
2023-09-27T06:14:01.304Z,84.36
2023-09-27T06:15:03.368Z,84.42
2023-09-27T06:16:15.074Z,84.77
2023-09-27T06:17:18.548Z,84.06
2023-09-27T06:18:20.745Z,85.33
2023-09-27T06:19:22.823Z,85.11
2023-09-27T06:20:25.677Z,85.01
2023-09-27T06:21:27.747Z,85.81
2023-09-27T06:22:29.779Z,86.35
2023-09-27T06:23:31.776Z,85.67
2023-09-27T06:24:33.872Z,86.13
2023-09-27T06:25:36.563Z,86.14
2023-09-27T06:26:38.668Z,86.61
2023-09-27T06:27:40.972Z,86.65
2023-09-27T06:28:43.512Z,86.46
2023-09-27T06:29:45.560Z,86.86
2023-09-27T06:30:47.553Z,86.84
2023-09-27T06:31:50.810Z,87.25
2023-09-27T06:32:53.186Z,86.62
2023-09-27T06:33:55.334Z,87.42
2023-09-27T06:34:58.281Z,87.40
2023-09-27T06:36:00.929Z,86.61
2023-09-27T06:37:03.009Z,86.77
2023-09-27T06:38:05.064Z,87.51
2023-09-27T06:39:08.942Z,87.58
2023-09-27T06:40:17.622Z,87.11
2023-09-27T06:41:19.734Z,86.67
2023-09-27T06:42:24.590Z,86.84
2023-09-27T06:43:29.397Z,86.61
2023-09-27T06:44:35.192Z,84.70
2023-09-27T06:45:38.337Z,83.18
2023-09-27T06:46:48.634Z,82.93
2023-09-27T06:47:51.473Z,83.40
2023-09-27T06:48:54.167Z,83.17
2023-09-27T06:49:56.732Z,83.20
2023-09-27T06:50:58.756Z,82.51
2023-09-27T06:52:00.778Z,83.42
2023-09-27T06:53:20.924Z,83.48
2023-09-27T06:54:24.000Z,83.81
2023-09-27T06:55:25.973Z,83.40
2023-09-27T06:56:27.982Z,84.23
2023-09-27T06:57:29.998Z,84.02
2023-09-27T06:58:31.997Z,83.52
2023-09-27T06:59:34.049Z,81.98
2023-09-27T07:00:36.308Z,82.88
2023-09-27T07:01:38.448Z,83.03
2023-09-27T07:02:43.278Z,83.62
2023-09-27T07:03:45.403Z,82.21
2023-09-27T07:04:47.701Z,83.39
2023-09-27T07:05:49.712Z,83.25
2023-09-27T07:06:51.693Z,83.28
2023-09-27T07:07:54.861Z,84.04
2023-09-27T07:08:59.335Z,83.06
2023-09-27T07:10:01.475Z,82.51
2023-09-27T07:11:07.149Z,82.96
2023-09-27T07:12:09.611Z,82.78
2023-09-27T07:13:11.794Z,83.08
2023-09-27T07:14:13.931Z,83.88
2023-09-27T07:15:16.169Z,82.63
2023-09-27T07:16:28.588Z,82.30
2023-09-27T07:17:30.760Z,82.56
2023-09-27T07:18:32.967Z,82.50
2023-09-27T07:19:35.613Z,82.81
2023-09-27T07:20:38.089Z,82.81
2023-09-27T07:21:40.284Z,82.62
2023-09-27T07:22:43.711Z,82.59
2023-09-27T07:23:45.789Z,82.73
2023-09-27T07:24:47.812Z,82.84
2023-09-27T07:25:49.866Z,82.61
2023-09-27T07:26:54.041Z,82.01
2023-09-27T07:27:57.243Z,81.86
2023-09-27T07:28:59.253Z,81.40
2023-09-27T07:30:01.822Z,81.36
2023-09-27T07:31:03.986Z,81.40
2023-09-27T07:32:06.252Z,82.02
2023-09-27T07:33:10.573Z,81.71
2023-09-27T07:34:12.704Z,82.74
2023-09-27T07:35:18.109Z,82.45
2023-09-27T07:36:22.209Z,83.06
2023-09-27T07:37:24.298Z,82.36
2023-09-27T07:38:27.308Z,82.87
2023-09-27T07:39:29.328Z,83.42
2023-09-27T07:40:31.639Z,82.95
2023-09-27T07:41:36.444Z,82.74
2023-09-27T07:42:45.593Z,82.91
2023-09-27T07:43:48.964Z,82.44
2023-09-27T07:44:51.181Z,81.96
2023-09-27T07:45:54.222Z,82.08
2023-09-27T07:46:56.297Z,80.91
2023-09-27T07:47:58.535Z,80.83
2023-09-27T07:49:00.593Z,80.27
2023-09-27T07:50:02.724Z,80.71
2023-09-27T07:51:11.419Z,80.28
2023-09-27T07:52:13.475Z,79.81
2023-09-27T07:53:15.595Z,78.92
2023-09-27T07:54:17.781Z,78.01
2023-09-27T07:55:22.564Z,77.90
2023-09-27T07:56:27.660Z,77.59
2023-09-27T07:57:29.751Z,77.19
2023-09-27T07:58:31.781Z,78.09
2023-09-27T07:59:33.888Z,78.13
2023-09-27T08:00:36.726Z,78.05
2023-09-27T08:01:38.926Z,77.51
2023-09-27T08:02:40.986Z,77.42
2023-09-27T08:03:43.166Z,77.41
2023-09-27T08:04:45.281Z,77.49
2023-09-27T08:05:47.478Z,77.95
2023-09-27T08:06:49.592Z,77.06
2023-09-27T08:07:52.238Z,76.70
2023-09-27T08:08:55.748Z,77.03
2023-09-27T08:10:15.310Z,77.01
2023-09-27T08:11:19.820Z,76.72
2023-09-27T08:12:21.815Z,75.46
2023-09-27T08:13:23.805Z,75.79
2023-09-27T08:14:27.463Z,75.04
2023-09-27T08:15:29.745Z,75.57
2023-09-27T08:16:31.809Z,76.36
2023-09-27T08:17:34.178Z,75.52
2023-09-27T08:18:38.681Z,74.84
2023-09-27T08:19:40.778Z,75.32
2023-09-27T08:20:42.761Z,74.39
2023-09-27T08:21:44.741Z,73.97
2023-09-27T08:22:46.808Z,73.38
2023-09-27T08:23:48.886Z,74.04
2023-09-27T08:24:50.973Z,72.84
2023-09-27T08:25:56.859Z,72.79
2023-09-27T08:26:59.627Z,72.35
2023-09-27T08:28:02.952Z,72.51
2023-09-27T08:29:07.273Z,74.07
2023-09-27T08:30:10.542Z,73.44
2023-09-27T08:31:12.601Z,73.19
2023-09-27T08:32:14.748Z,73.10
2023-09-27T08:33:16.805Z,72.95
2023-09-27T08:34:19.530Z,73.10
2023-09-27T08:35:21.648Z,72.58
2023-09-27T08:36:23.636Z,71.22
2023-09-27T08:37:25.651Z,72.37
2023-09-27T08:38:27.863Z,69.76
2023-09-27T08:39:30.283Z,70.25
2023-09-27T08:40:32.517Z,68.44
2023-09-27T08:41:34.574Z,68.41
2023-09-27T08:42:36.682Z,68.25
2023-09-27T08:43:38.655Z,68.77
2023-09-27T08:44:40.731Z,69.69
2023-09-27T08:45:43.654Z,69.60
2023-09-27T08:46:45.704Z,67.25
2023-09-27T08:47:47.895Z,67.77
2023-09-27T08:48:50.015Z,68.39
2023-09-27T08:49:52.013Z,66.17
2023-09-27T08:50:56.209Z,65.67
2023-09-27T08:51:59.060Z,65.68
2023-09-27T08:53:01.190Z,67.24
2023-09-27T08:54:03.479Z,65.30
2023-09-27T08:55:07.893Z,65.45
2023-09-27T08:56:16.093Z,64.80
2023-09-27T08:57:18.583Z,64.84
2023-09-27T08:58:20.574Z,66.04
2023-09-27T08:59:22.687Z,65.22
2023-09-27T09:00:28.146Z,62.33
2023-09-27T09:01:34.316Z,63.73
2023-09-27T09:02:38.715Z,64.02
2023-09-27T09:03:42.444Z,64.07
2023-09-27T09:04:45.212Z,64.63
2023-09-27T09:05:49.375Z,62.29
2023-09-27T09:06:51.968Z,62.00
2023-09-27T09:07:54.035Z,60.42
2023-09-27T09:08:56.338Z,61.93
2023-09-27T09:09:58.562Z,61.86
2023-09-27T09:11:00.835Z,61.42
2023-09-27T09:12:10.190Z,59.74
2023-09-27T09:13:12.451Z,62.21
2023-09-27T09:14:18.369Z,60.57
2023-09-27T09:15:48.422Z,59.23
2023-09-27T09:16:54.670Z,59.81
2023-09-27T09:17:59.303Z,58.18
2023-09-27T09:19:41.798Z,59.07
2023-09-27T09:21:01.078Z,58.79
2023-09-27T09:22:05.833Z,59.05
2023-09-27T09:23:13.919Z,58.83
2023-09-27T09:24:22.221Z,58.95
2023-09-27T09:25:27.721Z,58.66
2023-09-27T09:26:31.203Z,58.15
2023-09-27T09:27:34.240Z,55.73
2023-09-27T09:28:37.724Z,57.16
2023-09-27T09:29:49.707Z,56.59
2023-09-27T09:30:51.710Z,54.41
2023-09-27T09:31:57.826Z,55.91
2023-09-27T09:32:59.890Z,56.67
2023-09-27T09:34:09.269Z,55.97
2023-09-27T09:35:11.367Z,56.42
2023-09-27T09:36:16.062Z,55.97
2023-09-27T09:37:27.026Z,54.16
2023-09-27T09:38:34.765Z,56.30
2023-09-27T09:39:36.876Z,56.89
2023-09-27T09:41:01.620Z,53.32
2023-09-27T09:42:05.151Z,51.71
2023-09-27T09:43:07.179Z,54.41
2023-09-27T09:44:20.636Z,54.69
2023-09-27T09:45:23.009Z,54.98
2023-09-27T09:46:25.661Z,51.89
2023-09-27T09:47:29.442Z,50.55
2023-09-27T09:48:32.838Z,53.09
2023-09-27T09:49:36.304Z,52.05
2023-09-27T09:50:38.386Z,52.99
2023-09-27T09:51:40.969Z,49.03
2023-09-27T09:52:42.980Z,48.46
2023-09-27T09:53:45.082Z,51.33
2023-09-27T09:54:57.188Z,51.69
2023-09-27T09:57:21.915Z,50.72
2023-09-27T09:58:43.964Z,50.12
2023-09-27T09:59:53.993Z,50.99
2023-09-27T10:00:56.035Z,51.20
2023-09-27T10:01:58.879Z,52.24
2023-09-27T10:03:03.251Z,51.93
2023-09-27T10:04:05.999Z,49.96
2023-09-27T10:05:09.225Z,49.23
2023-09-27T10:06:11.958Z,47.79
2023-09-27T10:07:15.367Z,46.78
2023-09-27T10:08:20.152Z,47.37
2023-09-27T10:09:25.715Z,46.57
2023-09-27T10:10:28.289Z,47.50
2023-09-27T10:11:30.457Z,50.64
2023-09-27T10:12:32.470Z,46.69
2023-09-27T10:13:36.380Z,43.32
2023-09-27T10:14:38.823Z,45.74
2023-09-27T10:15:41.917Z,46.89
2023-09-27T10:16:44.780Z,46.09
2023-09-27T10:17:47.025Z,45.68
2023-09-27T10:18:49.039Z,46.58
2023-09-27T10:20:16.209Z,46.41
2023-09-27T10:21:18.234Z,45.31
2023-09-27T10:22:25.533Z,46.56
2023-09-27T10:23:27.581Z,43.10
2023-09-27T10:24:29.754Z,40.73
2023-09-27T10:25:32.189Z,40.63
2023-09-27T10:26:34.591Z,41.66
2023-09-27T10:28:02.541Z,42.12
2023-09-27T10:29:23.026Z,42.80
2023-09-27T10:30:25.073Z,41.70
2023-09-27T10:31:27.120Z,42.09
2023-09-27T10:32:29.431Z,43.46
2023-09-27T10:33:31.957Z,42.08
2023-09-27T10:34:39.625Z,41.71
2023-09-27T10:35:43.173Z,41.89
2023-09-27T10:36:55.037Z,41.54
2023-09-27T10:38:05.735Z,39.84
2023-09-27T10:39:07.811Z,40.15
2023-09-27T10:40:22.821Z,40.21
2023-09-27T10:41:34.070Z,39.47
2023-09-27T10:42:44.682Z,41.94
2023-09-27T10:43:47.452Z,40.26
2023-09-27T10:44:51.537Z,39.11
2023-09-27T10:45:59.547Z,39.17
2023-09-27T10:47:05.538Z,40.47
2023-09-27T10:48:20.489Z,40.89
2023-09-27T10:49:23.262Z,39.67
2023-09-27T10:50:29.300Z,39.55
2023-09-27T10:51:31.339Z,38.24
2023-09-27T10:52:33.674Z,38.40
2023-09-27T10:53:35.738Z,37.11
2023-09-27T10:54:37.819Z,36.53
2023-09-27T10:55:41.393Z,37.64
2023-09-27T10:56:46.681Z,36.46
2023-09-27T10:57:48.677Z,36.97
2023-09-27T10:58:51.028Z,36.30
2023-09-27T10:59:53.559Z,36.33
2023-09-27T11:00:56.748Z,35.19
2023-09-27T11:02:00.596Z,35.60
2023-09-27T11:03:16.966Z,35.74
2023-09-27T11:04:21.867Z,34.53
2023-09-27T11:05:27.235Z,34.58
2023-09-27T11:06:29.885Z,33.78
2023-09-27T11:07:44.758Z,32.04
2023-09-27T11:08:46.878Z,34.59
2023-09-27T11:09:49.549Z,29.45
2023-09-27T11:10:54.214Z,30.80
2023-09-27T11:11:56.550Z,29.04
2023-09-27T11:13:18.301Z,28.27
2023-09-27T11:14:30.439Z,27.19
2023-09-27T11:15:32.634Z,27.20
2023-09-27T11:16:34.705Z,28.70
2023-09-27T11:17:36.888Z,29.90
2023-09-27T11:18:46.259Z,30.48
2023-09-27T11:19:48.376Z,28.57
2023-09-27T11:20:50.523Z,30.58
2023-09-27T11:21:52.611Z,29.28
2023-09-27T11:22:58.841Z,28.83
2023-09-27T11:24:04.579Z,26.89
2023-09-27T11:25:26.644Z,30.25
2023-09-27T11:26:30.279Z,30.58
2023-09-27T11:27:32.369Z,30.12
2023-09-27T11:28:34.441Z,29.55
2023-09-27T11:29:36.660Z,32.23
2023-09-27T11:30:38.898Z,27.17
2023-09-27T11:31:40.887Z,32.58
2023-09-27T11:32:52.747Z,30.95
2023-09-27T11:33:55.349Z,30.79
2023-09-27T11:34:58.284Z,33.23
2023-09-27T11:36:05.213Z,34.71
2023-09-27T11:37:07.904Z,33.96
2023-09-27T11:38:11.246Z,33.23
2023-09-27T11:39:15.056Z,32.64
2023-09-27T11:40:17.289Z,31.74
2023-09-27T11:41:19.882Z,33.31
2023-09-27T11:42:25.329Z,31.17
2023-09-27T11:43:33.218Z,31.23
2023-09-27T11:44:35.194Z,32.75
2023-09-27T11:45:50.143Z,31.90
2023-09-27T11:47:03.635Z,34.06
2023-09-27T11:48:06.615Z,35.70
2023-09-27T11:49:11.829Z,33.10
2023-09-27T11:50:17.350Z,33.83
2023-09-27T11:51:19.471Z,34.64
2023-09-27T11:52:21.496Z,33.94
2023-09-27T11:53:23.589Z,35.51
2023-09-27T11:54:26.528Z,34.67
2023-09-27T11:55:28.544Z,34.55
2023-09-27T11:56:30.726Z,35.03
2023-09-27T11:57:32.750Z,36.29
2023-09-27T11:58:34.728Z,35.56
2023-09-27T11:59:38.737Z,31.29
2023-09-27T12:00:40.897Z,32.86
2023-09-27T12:01:42.973Z,34.77
2023-09-27T12:02:56.494Z,33.96
2023-09-27T12:04:00.805Z,35.72
2023-09-27T12:05:06.268Z,34.76
2023-09-27T12:06:08.594Z,34.27
2023-09-27T12:07:11.939Z,36.13
2023-09-27T12:08:14.069Z,35.01
2023-09-27T12:09:16.152Z,37.13
2023-09-27T12:10:18.190Z,37.68
2023-09-27T12:11:20.205Z,34.89
2023-09-27T12:12:22.473Z,37.51
2023-09-27T12:13:24.474Z,36.41
2023-09-27T12:14:26.494Z,33.25
2023-09-27T12:15:29.377Z,33.54
2023-09-27T12:16:31.440Z,32.40
2023-09-27T12:17:33.621Z,34.46
2023-09-27T12:18:35.780Z,35.00
2023-09-27T12:19:37.951Z,34.22
2023-09-27T12:20:43.042Z,34.14
2023-09-27T12:21:46.652Z,35.86
2023-09-27T12:22:48.876Z,35.57
2023-09-27T12:23:50.939Z,33.65
2023-09-27T12:24:53.030Z,36.97
2023-09-27T12:25:56.765Z,37.77
2023-09-27T12:26:58.951Z,38.26
2023-09-27T12:28:01.005Z,40.86
2023-09-27T12:29:04.180Z,37.59
2023-09-27T12:30:06.710Z,36.97
2023-09-27T12:31:09.060Z,39.41
2023-09-27T12:32:11.506Z,37.07
2023-09-27T12:33:13.869Z,38.20
2023-09-27T12:34:16.010Z,37.04
2023-09-27T12:35:18.890Z,38.64
2023-09-27T12:36:20.918Z,39.03
2023-09-27T12:37:23.243Z,39.22
2023-09-27T12:38:26.023Z,37.87
2023-09-27T12:39:28.071Z,39.17
2023-09-27T12:40:32.463Z,40.22
2023-09-27T12:41:35.069Z,41.20
2023-09-27T12:42:37.172Z,42.73
2023-09-27T12:43:40.992Z,41.20
2023-09-27T12:44:43.019Z,44.32
2023-09-27T12:45:45.059Z,45.92
2023-09-27T12:46:47.100Z,41.53
2023-09-27T12:47:49.236Z,39.62
2023-09-27T12:48:51.617Z,40.47
2023-09-27T12:49:53.812Z,42.09
2023-09-27T12:50:56.988Z,42.24
2023-09-27T12:51:59.054Z,40.47
2023-09-27T12:53:02.364Z,40.29
2023-09-27T12:54:04.406Z,39.27
2023-09-27T12:55:06.588Z,40.39
2023-09-27T12:56:08.838Z,42.28
2023-09-27T12:57:10.911Z,41.94
2023-09-27T12:58:13.756Z,41.37
2023-09-27T12:59:15.804Z,41.85
2023-09-27T13:00:18.514Z,40.73
2023-09-27T13:01:20.673Z,39.06
2023-09-27T13:02:22.754Z,40.06
2023-09-27T13:03:24.837Z,40.07
2023-09-27T13:04:27.213Z,40.79
2023-09-27T13:05:29.301Z,41.90
2023-09-27T13:06:32.114Z,42.29
2023-09-27T13:07:34.113Z,43.47
2023-09-27T13:08:36.188Z,43.32
2023-09-27T13:09:38.782Z,42.79
2023-09-27T13:10:40.777Z,43.56
2023-09-27T13:11:43.017Z,43.71
2023-09-27T13:12:45.164Z,43.81
2023-09-27T13:13:47.198Z,43.80
2023-09-27T13:14:49.209Z,44.88
2023-09-27T13:15:51.311Z,44.37
2023-09-27T13:16:53.366Z,41.90
2023-09-27T13:17:55.400Z,43.01
2023-09-27T13:18:57.578Z,42.92
2023-09-27T13:19:59.833Z,42.01
2023-09-27T13:21:02.051Z,44.37
2023-09-27T13:22:04.051Z,46.33
2023-09-27T13:23:06.102Z,43.84
2023-09-27T13:24:09.427Z,46.04
2023-09-27T13:25:14.597Z,46.54
2023-09-27T13:26:16.728Z,46.61
2023-09-27T13:27:18.820Z,49.30
2023-09-27T13:28:21.358Z,48.60
2023-09-27T13:29:23.423Z,43.62
2023-09-27T13:30:35.556Z,46.79
2023-09-27T13:31:38.793Z,48.50
2023-09-27T13:32:40.904Z,47.98
2023-09-27T13:33:46.574Z,48.02
2023-09-27T13:34:51.300Z,47.03
2023-09-27T13:35:53.376Z,48.07
2023-09-27T13:36:55.687Z,46.05
2023-09-27T13:37:57.726Z,47.69